Flight Track Log - Related Links

Times and Time Zones

All times are in EDT time to prevent confusion due to time zone crossing. See the CCA1223 flight status page for this flight to view local times or setup timezone preferences in your user account.

Time Position Orientation Groundspeed Altitude Reporting Facility
EDT Latitude Longitude Course Direction KTS MPH feet Rate Location/Type
Tue 01:15:00 AM 39.7114 116.0089 230° Southwest  Level Estimated
Tue 01:16:00 AM 39.6373 115.8945 230° Southwest  Level Estimated
Tue 01:17:00 AM 39.5631 115.7803 230° Southwest  Level Estimated
Tue 01:17:47 AM 40.3370 116.0840 230° Southwest 377 434 19,700  Level FlightAware ADS-B
Tue 01:18:00 AM 39.4888 115.6664 230° Southwest  Level Estimated
Tue 01:18:52 AM 40.2910 115.9600 244° Southwest 372 428 19,700  Level FlightAware ADS-B
Tue 01:19:00 AM 39.4144 115.5527 230° Southwest  Level Estimated
Tue 01:21:00 AM 40.1223 115.7265 227° Southwest  Level Estimated
Tue 01:22:00 AM 40.0431 115.6174 227° Southwest  Level Estimated
Tue 01:23:00 AM 39.9638 115.5086 226° Southwest  Level Estimated
Tue 01:24:00 AM 39.8843 115.4000 226° Southwest  Level Estimated
Tue 01:25:00 AM 39.8048 115.2917 226° Southwest  Level Estimated
Tue 01:26:00 AM 39.7252 115.1837 226° Southwest  Level Estimated
Tue 01:27:00 AM 39.6455 115.0759 226° Southwest  Level Estimated
Tue 01:28:00 AM 39.5656 114.9683 226° Southwest  Level Estimated
Tue 01:29:00 AM 39.4857 114.8610 226° Southwest  Level Estimated
Tue 01:30:00 AM 39.4057 114.7539 226° Southwest  Level Estimated
Tue 01:31:00 AM 39.3255 114.6471 226° Southwest  Level Estimated
Tue 01:32:00 AM 39.2453 114.5405 226° Southwest  Level Estimated
Tue 01:33:00 AM 39.1650 114.4342 226° Southwest  Level Estimated
Tue 01:34:00 AM 39.0846 114.3281 226° Southwest  Level Estimated
Tue 01:35:00 AM 39.0041 114.2222 226° Southwest  Level Estimated
Tue 01:36:00 AM 38.9235 114.1166 226° Southwest  Level Estimated
Tue 01:37:00 AM 38.8428 114.0113 225° Southwest  Level Estimated
Tue 01:38:00 AM 38.7620 113.9061 225° Southwest  Level Estimated
Tue 01:39:00 AM 38.6811 113.8012 225° Southwest  Level Estimated
Tue 01:40:00 AM 38.6001 113.6966 225° Southwest  Level Estimated
Tue 01:41:00 AM 38.5190 113.5922 225° Southwest  Level Estimated
Tue 01:42:00 AM 38.4378 113.4880 225° Southwest  Level Estimated
Tue 01:43:00 AM 38.3566 113.3840 225° Southwest  Level Estimated
Tue 01:44:00 AM 38.2752 113.2803 225° Southwest  Level Estimated
Tue 01:45:00 AM 38.1938 113.1768 225° Southwest  Level Estimated
Tue 01:46:00 AM 38.1122 113.0736 225° Southwest  Level Estimated
Tue 01:47:00 AM 38.0306 112.9706 225° Southwest  Level Estimated
Tue 01:48:00 AM 37.9489 112.8678 225° Southwest  Level Estimated
Tue 01:49:00 AM 37.8671 112.7652 225° Southwest  Level Estimated
Tue 01:50:00 AM 37.7852 112.6629 225° Southwest  Level Estimated
Tue 01:51:00 AM 37.7032 112.5608 225° Southwest  Level Estimated
Tue 01:52:00 AM 37.6212 112.4589 225° Southwest  Level Estimated
Tue 01:53:00 AM 37.5390 112.3572 224° Southwest  Level Estimated
Tue 01:54:00 AM 37.4567 112.2558 224° Southwest  Level Estimated
Tue 01:55:00 AM 37.3744 112.1546 224° Southwest  Level Estimated
Tue 01:56:00 AM 37.2920 112.0536 224° Southwest  Level Estimated
Tue 01:57:00 AM 37.2095 111.9528 224° Southwest  Level Estimated
Tue 01:58:00 AM 37.1269 111.8523 224° Southwest  Level Estimated
Tue 01:59:00 AM 37.0442 111.7519 224° Southwest  Level Estimated
Tue 02:00:00 AM 36.9615 111.6518 224° Southwest  Level Estimated
Tue 02:01:00 AM 36.8786 111.5519 224° Southwest  Level Estimated
Tue 02:02:00 AM 36.7957 111.4523 224° Southwest  Level Estimated
Tue 02:03:00 AM 36.7127 111.3528 224° Southwest  Level Estimated
Tue 02:04:00 AM 36.6296 111.2535 224° Southwest  Level Estimated
Tue 02:05:00 AM 36.5465 111.1545 224° Southwest  Level Estimated
Tue 02:06:00 AM 36.4632 111.0557 224° Southwest  Level Estimated
Tue 02:07:00 AM 36.3799 110.9571 224° Southwest  Level Estimated
Tue 02:08:00 AM 36.2965 110.8587 224° Southwest  Level Estimated
Tue 02:09:00 AM 36.2130 110.7605 224° Southwest  Level Estimated
Tue 02:10:00 AM 36.1294 110.6625 223° Southwest  Level Estimated
Tue 02:11:00 AM 36.0457 110.5648 223° Southwest  Level Estimated
Tue 02:12:00 AM 35.9620 110.4672 223° Southwest  Level Estimated
Tue 02:13:00 AM 35.8782 110.3698 223° Southwest  Level Estimated
Tue 02:14:00 AM 35.7943 110.2727 223° Southwest  Level Estimated
Tue 02:15:00 AM 35.7103 110.1758 223° Southwest  Level Estimated
Tue 02:16:00 AM 35.6263 110.0790 223° Southwest  Level Estimated
Tue 02:17:00 AM 35.5422 109.9825 223° Southwest  Level Estimated
Tue 02:18:00 AM 35.4580 109.8861 223° Southwest  Level Estimated
Tue 02:19:00 AM 35.3737 109.7900 223° Southwest  Level Estimated
Tue 02:20:00 AM 35.2893 109.6941 223° Southwest  Level Estimated
Tue 02:21:00 AM 35.2049 109.5984 223° Southwest  Level Estimated
Tue 02:22:00 AM 35.1204 109.5028 223° Southwest  Level Estimated
Tue 02:23:00 AM 35.0358 109.4075 223° Southwest  Level Estimated
Tue 02:24:00 AM 34.9512 109.3123 223° Southwest  Level Estimated
Tue 02:25:00 AM 34.8664 109.2174 223° Southwest  Level Estimated
Tue 02:26:00 AM 34.7816 109.1227 223° Southwest  Level Estimated
Tue 02:27:00 AM 34.6968 109.0281 222° Southwest  Level Estimated
Tue 02:28:00 AM 34.6118 108.9338 222° Southwest  Level Estimated
Tue 02:29:00 AM 34.5268 108.8396 222° Southwest  Level Estimated
Tue 02:30:00 AM 34.4471 108.7516 222° Southwest  Level Estimated
Tue 02:31:00 AM 34.4471 108.7516 121° Southeast  Level Estimated
Tue 02:32:00 AM 34.4471 108.7516 121° Southeast  Level Estimated
Tue 02:33:00 AM 34.4471 108.7516 121° Southeast  Level Estimated
Tue 02:34:00 AM 34.4471 108.7516 121° Southeast  Level Estimated
Tue 02:35:00 AM 34.4471 108.7516 121° Southeast  Level Estimated
Tue 02:36:00 AM 34.4471 108.7516 121° Southeast  Level Estimated
Tue 02:37:00 AM 34.4471 108.7516 121° Southeast  Level Estimated
Tue 02:38:00 AM 34.4471 108.7516 121° Southeast  Level Estimated
Tue 02:39:00 AM 34.4471 108.7516 121° Southeast  Level Estimated

Login

Don't have an account? Register now (free) for customized features, flight alerts, and more!